sensor_id;sensor_type;location;lat;lon;timestamp;pressure;altitude;pressure_sealevel;temperature;humidity
67434;BME280;54305;47.950;6.572;2022-09-09T00:04:11;94161.56;;;13.38;100.00
67434;BME280;54305;47.950;6.572;2022-09-09T00:06:32;94158.41;;;13.43;100.00
67434;BME280;54305;47.950;6.572;2022-09-09T00:09:03;94171.56;;;13.49;100.00
67434;BME280;54305;47.950;6.572;2022-09-09T00:11:39;94167.34;;;13.48;100.00
67434;BME280;54305;47.950;6.572;2022-09-09T00:14:08;94173.00;;;13.52;99.81
67434;BME280;54305;47.950;6.572;2022-09-09T00:16:38;94170.66;;;13.57;96.34
67434;BME280;54305;47.950;6.572;2022-09-09T00:19:27;94168.31;;;13.62;97.32
67434;BME280;54305;47.950;6.572;2022-09-09T00:27:08;94151.78;;;13.61;98.80
67434;BME280;54305;47.950;6.572;2022-09-09T00:29:45;94148.75;;;13.79;96.18
67434;BME280;54305;47.950;6.572;2022-09-09T00:32:14;94139.47;;;13.76;95.09
67434;BME280;54305;47.950;6.572;2022-09-09T00:34:48;94145.16;;;13.80;94.72
67434;BME280;54305;47.950;6.572;2022-09-09T00:37:15;94143.47;;;13.72;95.77
67434;BME280;54305;47.950;6.572;2022-09-09T00:39:41;94149.97;;;13.62;96.33
67434;BME280;54305;47.950;6.572;2022-09-09T00:42:54;94148.03;;;13.49;95.96
67434;BME280;54305;47.950;6.572;2022-09-09T00:45:10;94145.31;;;13.43;97.53
67434;BME280;54305;47.950;6.572;2022-09-09T00:47:51;94143.97;;;13.47;96.83
67434;BME280;54305;47.950;6.572;2022-09-09T00:55:48;94139.63;;;13.54;95.66
67434;BME280;54305;47.950;6.572;2022-09-09T00:58:14;94141.69;;;13.58;94.88
67434;BME280;54305;47.950;6.572;2022-09-09T01:10:49;94117.44;;;13.50;98.61
67434;BME280;54305;47.950;6.572;2022-09-09T01:13:21;94123.88;;;13.33;95.31
67434;BME280;54305;47.950;6.572;2022-09-09T01:15:47;94122.53;;;13.37;97.10
67434;BME280;54305;47.950;6.572;2022-09-09T01:18:14;94129.38;;;13.38;95.65
67434;BME280;54305;47.950;6.572;2022-09-09T01:28:34;94114.03;;;13.35;100.00
67434;BME280;54305;47.950;6.572;2022-09-09T01:31:02;94120.25;;;13.34;100.00
67434;BME280;54305;47.950;6.572;2022-09-09T01:33:28;94122.69;;;13.35;100.00
67434;BME280;54305;47.950;6.572;2022-09-09T01:38:31;94105.72;;;13.46;100.00
67434;BME280;54305;47.950;6.572;2022-09-09T01:40:57;94105.47;;;13.41;100.00
67434;BME280;54305;47.950;6.572;2022-09-09T01:43:23;94114.28;;;13.40;100.00
67434;BME280;54305;47.950;6.572;2022-09-09T01:45:50;94110.78;;;13.33;100.00
67434;BME280;54305;47.950;6.572;2022-09-09T01:48:17;94116.78;;;13.27;100.00
67434;BME280;54305;47.950;6.572;2022-09-09T01:50:44;94114.25;;;13.19;100.00
67434;BME280;54305;47.950;6.572;2022-09-09T01:53:09;94109.84;;;13.19;100.00
67434;BME280;54305;47.950;6.572;2022-09-09T01:55:39;94111.28;;;13.22;100.00
67434;BME280;54305;47.950;6.572;2022-09-09T02:00:50;94118.22;;;13.15;100.00
67434;BME280;54305;47.950;6.572;2022-09-09T02:03:22;94118.13;;;13.08;100.00
67434;BME280;54305;47.950;6.572;2022-09-09T02:08:17;94121.19;;;13.12;100.00
67434;BME280;54305;47.950;6.572;2022-09-09T02:10:53;94120.91;;;13.07;100.00
67434;BME280;54305;47.950;6.572;2022-09-09T02:13:20;94120.91;;;13.07;100.00
67434;BME280;54305;47.950;6.572;2022-09-09T02:18:12;94118.03;;;13.02;100.00
67434;BME280;54305;47.950;6.572;2022-09-09T02:20:39;94112.44;;;13.05;100.00
67434;BME280;54305;47.950;6.572;2022-09-09T02:23:05;94114.97;;;13.13;100.00
67434;BME280;54305;47.950;6.572;2022-09-09T02:25:31;94112.44;;;13.19;99.99
67434;BME280;54305;47.950;6.572;2022-09-09T02:27:58;94111.53;;;13.27;99.05
67434;BME280;54305;47.950;6.572;2022-09-09T02:30:24;94110.78;;;13.33;97.23
67434;BME280;54305;47.950;6.572;2022-09-09T02:32:50;94112.50;;;13.40;97.33
67434;BME280;54305;47.950;6.572;2022-09-09T02:35:19;94112.06;;;13.37;96.57
67434;BME280;54305;47.950;6.572;2022-09-09T02:37:46;94113.31;;;13.41;96.60
67434;BME280;54305;47.950;6.572;2022-09-09T02:40:11;94100.84;;;13.43;95.50
67434;BME280;54305;47.950;6.572;2022-09-09T02:42:45;94104.47;;;13.42;95.90
67434;BME280;54305;47.950;6.572;2022-09-09T02:45:11;94107.69;;;13.44;95.83
67434;BME280;54305;47.950;6.572;2022-09-09T02:57:55;94097.41;;;13.57;95.64
67434;BME280;54305;47.950;6.572;2022-09-09T03:00:25;94095.78;;;13.56;95.48
67434;BME280;54305;47.950;6.572;2022-09-09T03:02:51;94104.84;;;13.60;96.22
67434;BME280;54305;47.950;6.572;2022-09-09T03:05:17;94102.72;;;13.49;95.90
67434;BME280;54305;47.950;6.572;2022-09-09T03:07:42;94093.34;;;13.54;96.23
67434;BME280;54305;47.950;6.572;2022-09-09T03:10:07;94090.91;;;13.53;96.09
67434;BME280;54305;47.950;6.572;2022-09-09T03:12:33;94096.97;;;13.53;96.97
67434;BME280;54305;47.950;6.572;2022-09-09T03:14:58;94100.13;;;13.49;97.96
67434;BME280;54305;47.950;6.572;2022-09-09T03:17:23;94102.56;;;13.50;96.74
67434;BME280;54305;47.950;6.572;2022-09-09T03:19:49;94105.00;;;13.52;97.28
67434;BME280;54305;47.950;6.572;2022-09-09T03:22:17;94107.47;;;13.60;96.72
67434;BME280;54305;47.950;6.572;2022-09-09T03:24:42;94103.50;;;13.64;96.59
67434;BME280;54305;47.950;6.572;2022-09-09T03:27:07;94103.88;;;13.61;98.27
67434;BME280;54305;47.950;6.572;2022-09-09T03:29:33;94099.75;;;13.52;99.85
67434;BME280;54305;47.950;6.572;2022-09-09T03:31:58;94100.13;;;13.49;100.00
67434;BME280;54305;47.950;6.572;2022-09-09T03:34:23;94097.75;;;13.54;99.45
67434;BME280;54305;47.950;6.572;2022-09-09T03:36:49;94094.53;;;13.52;100.00
67434;BME280;54305;47.950;6.572;2022-09-09T03:39:14;94087.69;;;13.51;100.00
67434;BME280;54305;47.950;6.572;2022-09-09T03:41:39;94097.25;;;13.44;100.00
67434;BME280;54305;47.950;6.572;2022-09-09T03:44:04;94092.75;;;13.38;100.00
67434;BME280;54305;47.950;6.572;2022-09-09T03:46:30;94094.38;;;13.39;100.00
67434;BME280;54305;47.950;6.572;2022-09-09T03:48:56;94089.56;;;13.42;100.00
67434;BME280;54305;47.950;6.572;2022-09-09T03:51:22;94088.78;;;13.42;100.00
67434;BME280;54305;47.950;6.572;2022-09-09T03:53:47;94086.88;;;13.36;100.00
67434;BME280;54305;47.950;6.572;2022-09-09T03:56:12;94087.88;;;13.35;100.00
67434;BME280;54305;47.950;6.572;2022-09-09T03:58:38;94095.63;;;13.43;100.00
67434;BME280;54305;47.950;6.572;2022-09-09T04:01:08;94087.16;;;13.41;100.00
67434;BME280;54305;47.950;6.572;2022-09-09T04:03:34;94089.28;;;13.52;100.00
67434;BME280;54305;47.950;6.572;2022-09-09T04:06:00;94091.50;;;13.55;100.00
67434;BME280;54305;47.950;6.572;2022-09-09T04:08:25;94096.13;;;13.53;100.00
67434;BME280;54305;47.950;6.572;2022-09-09T04:10:51;94098.19;;;13.57;100.00
67434;BME280;54305;47.950;6.572;2022-09-09T04:13:17;94094.66;;;13.65;99.79
67434;BME280;54305;47.950;6.572;2022-09-09T04:15:43;94095.53;;;13.72;100.00
67434;BME280;54305;47.950;6.572;2022-09-09T04:18:09;94095.91;;;13.69;100.00
67434;BME280;54305;47.950;6.572;2022-09-09T04:20:34;94103.31;;;13.65;100.00
67434;BME280;54305;47.950;6.572;2022-09-09T04:23:00;94097.91;;;13.67;100.00
67434;BME280;54305;47.950;6.572;2022-09-09T04:25:25;94098.25;;;13.64;100.00
67434;BME280;54305;47.950;6.572;2022-09-09T04:27:54;94098.16;;;13.72;99.62
67434;BME280;54305;47.950;6.572;2022-09-09T04:30:19;94095.19;;;13.75;99.81
67434;BME280;54305;47.950;6.572;2022-09-09T04:32:45;94094.97;;;13.76;100.00
67434;BME280;54305;47.950;6.572;2022-09-09T04:35:11;94093.25;;;13.83;100.00
67434;BME280;54305;47.950;6.572;2022-09-09T04:37:36;94098.41;;;13.77;99.54
67434;BME280;54305;47.950;6.572;2022-09-09T04:40:01;94100.66;;;13.80;99.57
67434;BME280;54305;47.950;6.572;2022-09-09T04:42:27;94097.81;;;13.75;99.42
67434;BME280;54305;47.950;6.572;2022-09-09T04:44:52;94103.66;;;13.77;100.00
67434;BME280;54305;47.950;6.572;2022-09-09T04:47:18;94100.53;;;13.88;99.76
67434;BME280;54305;47.950;6.572;2022-09-09T04:49:43;94100.03;;;13.78;99.63
67434;BME280;54305;47.950;6.572;2022-09-09T04:52:08;94095.91;;;13.69;99.61
67434;BME280;54305;47.950;6.572;2022-09-09T04:54:33;94095.53;;;13.72;100.00
67434;BME280;54305;47.950;6.572;2022-09-09T04:56:59;94103.50;;;13.64;100.00
67434;BME280;54305;47.950;6.572;2022-09-09T04:59:24;94108.72;;;13.64;100.00
67434;BME280;54305;47.950;6.572;2022-09-09T05:01:50;94109.41;;;13.51;100.00
67434;BME280;54305;47.950;6.572;2022-09-09T05:04:15;94109.13;;;13.61;100.00
67434;BME280;54305;47.950;6.572;2022-09-09T05:06:41;94106.69;;;13.59;100.00
67434;BME280;54305;47.950;6.572;2022-09-09T05:09:07;94109.91;;;13.61;100.00
67434;BME280;54305;47.950;6.572;2022-09-09T05:11:32;94101.28;;;13.61;100.00
67434;BME280;54305;47.950;6.572;2022-09-09T05:14:01;94110.22;;;13.52;100.00
67434;BME280;54305;47.950;6.572;2022-09-09T05:16:26;94109.97;;;13.47;100.00
67434;BME280;54305;47.950;6.572;2022-09-09T05:18:51;94113.09;;;13.57;100.00
67434;BME280;54305;47.950;6.572;2022-09-09T05:21:17;94114.19;;;13.48;100.00
67434;BME280;54305;47.950;6.572;2022-09-09T05:23:43;94121.16;;;13.41;100.00
67434;BME280;54305;47.950;6.572;2022-09-09T05:26:11;94118.56;;;13.41;100.00
67434;BME280;54305;47.950;6.572;2022-09-09T05:28:37;94116.38;;;13.44;100.00
67434;BME280;54305;47.950;6.572;2022-09-09T05:31:04;94123.03;;;13.47;100.00
67434;BME280;54305;47.950;6.572;2022-09-09T05:33:30;94122.59;;;13.43;100.00
67434;BME280;54305;47.950;6.572;2022-09-09T05:35:56;94132.06;;;13.44;100.00
67434;BME280;54305;47.950;6.572;2022-09-09T05:38:22;94130.97;;;13.39;100.00
67434;BME280;54305;47.950;6.572;2022-09-09T05:40:50;94131.88;;;13.46;100.00
67434;BME280;54305;47.950;6.572;2022-09-09T05:43:15;94133.13;;;13.50;100.00
67434;BME280;54305;47.950;6.572;2022-09-09T05:45:41;94142.78;;;13.49;100.00
67434;BME280;54305;47.950;6.572;2022-09-09T05:48:06;94137.13;;;13.46;100.00
67434;BME280;54305;47.950;6.572;2022-09-09T05:50:32;94136.31;;;13.45;100.00
67434;BME280;54305;47.950;6.572;2022-09-09T05:52:58;94135.88;;;13.42;100.00
67434;BME280;54305;47.950;6.572;2022-09-09T05:55:24;94140.97;;;13.50;100.00
67434;BME280;54305;47.950;6.572;2022-09-09T05:57:50;94141.22;;;13.55;100.00
67434;BME280;54305;47.950;6.572;2022-09-09T06:00:17;94140.53;;;13.61;100.00
67434;BME280;54305;47.950;6.572;2022-09-09T06:02:42;94143.22;;;13.53;100.00
67434;BME280;54305;47.950;6.572;2022-09-09T06:05:08;94148.63;;;13.51;100.00
67434;BME280;54305;47.950;6.572;2022-09-09T06:07:34;94148.09;;;13.56;100.00
67434;BME280;54305;47.950;6.572;2022-09-09T06:09:59;94144.06;;;13.53;100.00
67434;BME280;54305;47.950;6.572;2022-09-09T06:12:25;94148.09;;;13.56;100.00
67434;BME280;54305;47.950;6.572;2022-09-09T06:14:50;94154.22;;;13.63;100.00
67434;BME280;54305;47.950;6.572;2022-09-09T06:17:16;94140.94;;;13.64;99.64
67434;BME280;54305;47.950;6.572;2022-09-09T06:19:42;94152.22;;;13.65;100.00
67434;BME280;54305;47.950;6.572;2022-09-09T06:22:07;94153.38;;;13.62;99.74
67434;BME280;54305;47.950;6.572;2022-09-09T06:24:32;94149.34;;;13.60;100.00
67434;BME280;54305;47.950;6.572;2022-09-09T06:26:58;94148.63;;;13.66;100.00
67434;BME280;54305;47.950;6.572;2022-09-09T06:29:23;94152.38;;;13.78;100.00
67434;BME280;54305;47.950;6.572;2022-09-09T06:31:48;94150.84;;;13.83;99.46
67434;BME280;54305;47.950;6.572;2022-09-09T06:34:13;94156.88;;;13.84;99.26
67434;BME280;54305;47.950;6.572;2022-09-09T06:36:39;94150.41;;;13.80;100.00
67434;BME280;54305;47.950;6.572;2022-09-09T06:39:05;94158.03;;;13.81;100.00
67434;BME280;54305;47.950;6.572;2022-09-09T06:41:31;94151.34;;;13.93;99.55
67434;BME280;54305;47.950;6.572;2022-09-09T06:43:57;94153.31;;;13.91;100.00
67434;BME280;54305;47.950;6.572;2022-09-09T06:46:24;94145.78;;;14.03;99.58
67434;BME280;54305;47.950;6.572;2022-09-09T06:48:53;94153.31;;;13.91;98.58
67434;BME280;54305;47.950;6.572;2022-09-09T06:51:20;94144.53;;;13.78;100.00
67434;BME280;54305;47.950;6.572;2022-09-09T06:53:47;94146.38;;;13.84;100.00
67434;BME280;54305;47.950;6.572;2022-09-09T06:56:18;94148.91;;;13.92;100.00
67434;BME280;54305;47.950;6.572;2022-09-09T06:58:44;94153.53;;;14.11;100.00
67434;BME280;54305;47.950;6.572;2022-09-09T07:01:11;94144.91;;;14.17;98.92
67434;BME280;54305;47.950;6.572;2022-09-09T07:03:37;94144.25;;;14.08;98.50
67434;BME280;54305;47.950;6.572;2022-09-09T07:06:03;94141.06;;;14.13;98.79
67434;BME280;54305;47.950;6.572;2022-09-09T07:08:29;94160.88;;;14.01;100.00
67434;BME280;54305;47.950;6.572;2022-09-09T07:11:01;94155.41;;;13.96;100.00
67434;BME280;54305;47.950;6.572;2022-09-09T07:13:26;94165.94;;;13.67;100.00
67434;BME280;54305;47.950;6.572;2022-09-09T07:15:52;94159.81;;;13.60;100.00
67434;BME280;54305;47.950;6.572;2022-09-09T07:18:18;94158.06;;;13.46;100.00
67434;BME280;54305;47.950;6.572;2022-09-09T07:20:43;94154.63;;;13.45;100.00
67434;BME280;54305;47.950;6.572;2022-09-09T07:23:17;94155.16;;;13.41;100.00
67434;BME280;54305;47.950;6.572;2022-09-09T07:25:45;94149.56;;;13.44;100.00
67434;BME280;54305;47.950;6.572;2022-09-09T07:28:11;94155.31;;;13.54;100.00
67434;BME280;54305;47.950;6.572;2022-09-09T07:30:36;94151.44;;;13.50;100.00
67434;BME280;54305;47.950;6.572;2022-09-09T07:33:02;94154.97;;;13.57;100.00
67434;BME280;54305;47.950;6.572;2022-09-09T07:35:28;94155.16;;;13.41;100.00
67434;BME280;54305;47.950;6.572;2022-09-09T07:37:53;94158.41;;;13.43;100.00
67434;BME280;54305;47.950;6.572;2022-09-09T07:40:19;94152.44;;;13.49;100.00
67434;BME280;54305;47.950;6.572;2022-09-09T07:42:46;94161.81;;;13.58;100.00
67434;BME280;54305;47.950;6.572;2022-09-09T07:45:15;94159.53;;;13.69;100.00
67434;BME280;54305;47.950;6.572;2022-09-09T07:47:40;94160.72;;;13.67;100.00
67434;BME280;54305;47.950;6.572;2022-09-09T07:50:09;94156.75;;;13.71;100.00
67434;BME280;54305;47.950;6.572;2022-09-09T07:52:38;94174.41;;;13.69;100.00
67434;BME280;54305;47.950;6.572;2022-09-09T07:55:03;94174.88;;;13.72;100.00
67434;BME280;54305;47.950;6.572;2022-09-09T07:57:29;94164.59;;;13.56;100.00
67434;BME280;54305;47.950;6.572;2022-09-09T07:59:55;94170.28;;;13.60;100.00
67434;BME280;54305;47.950;6.572;2022-09-09T08:02:21;94166.69;;;13.61;100.00
67434;BME280;54305;47.950;6.572;2022-09-09T08:04:46;94167.28;;;13.77;100.00
67434;BME280;54305;47.950;6.572;2022-09-09T08:07:12;94168.75;;;14.01;100.00
67434;BME280;54305;47.950;6.572;2022-09-09T08:09:38;94166.97;;;14.08;100.00
67434;BME280;54305;47.950;6.572;2022-09-09T08:12:03;94158.53;;;14.27;100.00
67434;BME280;54305;47.950;6.572;2022-09-09T08:14:29;94165.03;;;14.31;100.00
67434;BME280;54305;47.950;6.572;2022-09-09T08:16:55;94169.59;;;14.08;100.00
67434;BME280;54305;47.950;6.572;2022-09-09T08:19:21;94172.81;;;13.89;100.00
67434;BME280;54305;47.950;6.572;2022-09-09T08:21:46;94183.56;;;13.94;100.00
67434;BME280;54305;47.950;6.572;2022-09-09T08:24:12;94183.03;;;13.84;100.00
67434;BME280;54305;47.950;6.572;2022-09-09T08:26:40;94174.72;;;13.95;100.00
67434;BME280;54305;47.950;6.572;2022-09-09T08:29:07;94177.59;;;14.00;100.00
67434;BME280;54305;47.950;6.572;2022-09-09T08:31:34;94182.31;;;13.90;100.00
67434;BME280;54305;47.950;6.572;2022-09-09T08:34:00;94193.66;;;13.97;100.00
67434;BME280;54305;47.950;6.572;2022-09-09T08:36:27;94186.56;;;14.12;100.00
67434;BME280;54305;47.950;6.572;2022-09-09T08:38:53;94182.00;;;14.35;100.00
67434;BME280;54305;47.950;6.572;2022-09-09T08:52:01;94199.06;;;15.28;94.36
67434;BME280;54305;47.950;6.572;2022-09-09T08:54:28;94200.06;;;15.27;94.79
67434;BME280;54305;47.950;6.572;2022-09-09T08:56:57;94206.53;;;15.24;93.86
67434;BME280;54305;47.950;6.572;2022-09-09T08:59:22;94216.59;;;15.21;92.47
67434;BME280;54305;47.950;6.572;2022-09-09T09:12:17;94194.22;;;14.49;95.65
67434;BME280;54305;47.950;6.572;2022-09-09T09:14:47;94212.69;;;14.41;96.63
67434;BME280;54305;47.950;6.572;2022-09-09T09:17:18;94208.94;;;14.50;97.93
67434;BME280;54305;47.950;6.572;2022-09-09T09:19:48;94210.56;;;14.72;98.39
67434;BME280;54305;47.950;6.572;2022-09-09T09:22:17;94206.69;;;15.44;93.66
67434;BME280;54305;47.950;6.572;2022-09-09T09:24:56;94207.31;;;15.93;89.27
67434;BME280;54305;47.950;6.572;2022-09-09T09:27:35;94195.53;;;15.76;89.83
67434;BME280;54305;47.950;6.572;2022-09-09T09:30:05;94207.38;;;15.59;88.29
67434;BME280;54305;47.950;6.572;2022-09-09T09:32:32;94209.72;;;15.20;90.02
67434;BME280;54305;47.950;6.572;2022-09-09T09:34:58;94212.91;;;15.15;90.98
67434;BME280;54305;47.950;6.572;2022-09-09T09:37:32;94203.09;;;15.51;90.11
67434;BME280;54305;47.950;6.572;2022-09-09T09:40:10;94212.16;;;15.49;87.66
67434;BME280;54305;47.950;6.572;2022-09-09T09:42:35;94207.34;;;16.06;88.40
67434;BME280;54305;47.950;6.572;2022-09-09T09:45:08;94203.88;;;16.59;86.75
67434;BME280;54305;47.950;6.572;2022-09-09T09:47:33;94198.63;;;17.11;87.01
67434;BME280;54305;47.950;6.572;2022-09-09T09:49:59;94193.00;;;16.81;84.03
67434;BME280;54305;47.950;6.572;2022-09-09T09:52:28;94201.88;;;16.67;84.11
67434;BME280;54305;47.950;6.572;2022-09-09T09:54:54;94205.28;;;15.95;84.64
67434;BME280;54305;47.950;6.572;2022-09-09T09:57:27;94194.69;;;15.69;86.32
67434;BME280;54305;47.950;6.572;2022-09-09T10:00:04;94211.19;;;15.63;84.65
67434;BME280;54305;47.950;6.572;2022-09-09T10:02:38;94208.09;;;15.80;86.99
67434;BME280;54305;47.950;6.572;2022-09-09T10:05:06;94217.38;;;15.83;88.20
67434;BME280;54305;47.950;6.572;2022-09-09T10:07:37;94206.38;;;16.20;82.14
67434;BME280;54305;47.950;6.572;2022-09-09T10:10:04;94203.84;;;16.39;83.30
67434;BME280;54305;47.950;6.572;2022-09-09T10:12:36;94201.03;;;16.41;83.04
67434;BME280;54305;47.950;6.572;2022-09-09T10:17:57;94193.56;;;15.91;83.69
67434;BME280;54305;47.950;6.572;2022-09-09T10:20:34;94187.59;;;16.16;81.31
67434;BME280;54305;47.950;6.572;2022-09-09T10:25:33;94189.84;;;16.39;80.60
67434;BME280;54305;47.950;6.572;2022-09-09T10:33:12;94177.59;;;17.87;72.53
67434;BME280;54305;47.950;6.572;2022-09-09T10:38:42;94179.63;;;19.22;69.21
67434;BME280;54305;47.950;6.572;2022-09-09T10:41:06;94174.59;;;20.29;64.74
67434;BME280;54305;47.950;6.572;2022-09-09T10:46:05;94180.25;;;20.62;63.73
67434;BME280;54305;47.950;6.572;2022-09-09T10:48:43;94187.09;;;19.68;63.98
67434;BME280;54305;47.950;6.572;2022-09-09T10:56:44;94187.06;;;18.08;67.45
67434;BME280;54305;47.950;6.572;2022-09-09T10:59:19;94187.56;;;17.79;73.12
67434;BME280;54305;47.950;6.572;2022-09-09T11:01:49;94188.09;;;17.11;73.07
67434;BME280;54305;47.950;6.572;2022-09-09T11:07:16;94183.63;;;16.40;74.90
67434;BME280;54305;47.950;6.572;2022-09-09T11:09:49;94204.69;;;16.53;74.14
67434;BME280;54305;47.950;6.572;2022-09-09T11:12:18;94192.47;;;16.39;74.33
67434;BME280;54305;47.950;6.572;2022-09-09T11:14:53;94180.75;;;16.22;75.38
67434;BME280;54305;47.950;6.572;2022-09-09T11:17:26;94176.78;;;15.92;74.77
67434;BME280;54305;47.950;6.572;2022-09-09T11:19:56;94193.53;;;15.78;77.78
67434;BME280;54305;47.950;6.572;2022-09-09T11:30:18;94194.19;;;15.93;79.90
67434;BME280;54305;47.950;6.572;2022-09-09T11:35:41;94171.53;;;16.97;71.40
67434;BME280;54305;47.950;6.572;2022-09-09T11:40:36;94180.03;;;17.89;67.91
67434;BME280;54305;47.950;6.572;2022-09-09T11:43:03;94173.91;;;17.38;68.12
67434;BME280;54305;47.950;6.572;2022-09-09T11:45:31;94172.31;;;16.98;69.12
67434;BME280;54305;47.950;6.572;2022-09-09T11:48:00;94171.47;;;17.49;65.56
67434;BME280;54305;47.950;6.572;2022-09-09T11:50:27;94173.72;;;17.96;62.77
67434;BME280;54305;47.950;6.572;2022-09-09T11:53:05;94187.88;;;18.77;62.11
67434;BME280;54305;47.950;6.572;2022-09-09T11:55:40;94188.91;;;18.01;61.81
67434;BME280;54305;47.950;6.572;2022-09-09T11:58:15;94178.84;;;18.29;62.81
67434;BME280;54305;47.950;6.572;2022-09-09T12:00:42;94184.59;;;18.13;59.71
67434;BME280;54305;47.950;6.572;2022-09-09T12:05:53;94179.72;;;18.85;59.26
67434;BME280;54305;47.950;6.572;2022-09-09T12:08:20;94177.44;;;18.26;60.97
67434;BME280;54305;47.950;6.572;2022-09-09T12:10:56;94185.59;;;17.68;62.77
67434;BME280;54305;47.950;6.572;2022-09-09T12:13:22;94190.13;;;17.48;67.43
67434;BME280;54305;47.950;6.572;2022-09-09T12:15:51;94192.16;;;16.81;66.78
67434;BME280;54305;47.950;6.572;2022-09-09T12:18:25;94193.78;;;16.82;70.37
67434;BME280;54305;47.950;6.572;2022-09-09T12:20:54;94189.31;;;16.69;71.81
67434;BME280;54305;47.950;6.572;2022-09-09T12:33:24;94197.28;;;16.22;80.82
67434;BME280;54305;47.950;6.572;2022-09-09T12:35:56;94205.31;;;16.01;80.35
67434;BME280;54305;47.950;6.572;2022-09-09T12:38:35;94218.09;;;15.64;81.69
67434;BME280;54305;47.950;6.572;2022-09-09T12:41:01;94218.56;;;15.40;83.89
67434;BME280;54305;47.950;6.572;2022-09-09T12:43:27;94204.91;;;15.51;84.26
67434;BME280;54305;47.950;6.572;2022-09-09T12:45:57;94197.84;;;16.05;86.15
67434;BME280;54305;47.950;6.572;2022-09-09T12:48:27;94191.56;;;15.93;84.90
67434;BME280;54305;47.950;6.572;2022-09-09T12:50:55;94195.94;;;15.79;86.67
67434;BME280;54305;47.950;6.572;2022-09-09T12:53:25;94190.31;;;15.89;91.96
67434;BME280;54305;47.950;6.572;2022-09-09T12:55:56;94192.66;;;15.71;87.34
67434;BME280;54305;47.950;6.572;2022-09-09T12:58:21;94203.59;;;15.68;86.68
67434;BME280;54305;47.950;6.572;2022-09-09T13:00:54;94199.41;;;15.46;88.37
67434;BME280;54305;47.950;6.572;2022-09-09T13:03:23;94195.41;;;15.90;86.55
67434;BME280;54305;47.950;6.572;2022-09-09T13:05:49;94190.38;;;16.02;83.81
67434;BME280;54305;47.950;6.572;2022-09-09T13:08:18;94184.13;;;16.16;84.37
67434;BME280;54305;47.950;6.572;2022-09-09T13:13:20;94178.78;;;16.56;84.29
67434;BME280;54305;47.950;6.572;2022-09-09T13:15:50;94179.22;;;16.73;86.76
67434;BME280;54305;47.950;6.572;2022-09-09T13:18:16;94172.75;;;16.95;86.03
67434;BME280;54305;47.950;6.572;2022-09-09T13:20:47;94178.00;;;17.08;85.57
67434;BME280;54305;47.950;6.572;2022-09-09T13:23:13;94182.00;;;17.23;82.99
67434;BME280;54305;47.950;6.572;2022-09-09T13:25:39;94182.03;;;16.91;85.10
67434;BME280;54305;47.950;6.572;2022-09-09T13:28:05;94176.78;;;16.71;84.38
67434;BME280;54305;47.950;6.572;2022-09-09T13:31:19;94175.97;;;16.71;88.70
67434;BME280;54305;47.950;6.572;2022-09-09T13:33:36;94169.28;;;16.62;89.04
67434;BME280;54305;47.950;6.572;2022-09-09T13:38:31;94176.75;;;17.30;88.37
67434;BME280;54305;47.950;6.572;2022-09-09T13:40:58;94171.78;;;17.72;82.26
67434;BME280;54305;47.950;6.572;2022-09-09T13:43:24;94168.72;;;17.88;80.39
67434;BME280;54305;47.950;6.572;2022-09-09T13:45:54;94170.97;;;17.78;76.00
67434;BME280;54305;47.950;6.572;2022-09-09T13:48:24;94167.47;;;18.35;78.79
67434;BME280;54305;47.950;6.572;2022-09-09T13:50:56;94166.50;;;18.60;76.01
67434;BME280;54305;47.950;6.572;2022-09-09T13:53:22;94162.53;;;19.25;73.04
67434;BME280;54305;47.950;6.572;2022-09-09T13:55:47;94159.56;;;19.15;75.33
67434;BME280;54305;47.950;6.572;2022-09-09T13:58:16;94166.47;;;19.16;72.03
67434;BME280;54305;47.950;6.572;2022-09-09T14:00:46;94162.72;;;19.48;74.17
67434;BME280;54305;47.950;6.572;2022-09-09T14:03:12;94158.59;;;19.34;71.75
67434;BME280;54305;47.950;6.572;2022-09-09T14:05:38;94168.56;;;18.83;73.04
67434;BME280;54305;47.950;6.572;2022-09-09T14:08:04;94165.91;;;18.21;72.26
67434;BME280;54305;47.950;6.572;2022-09-09T14:10:31;94165.34;;;17.68;75.64
67434;BME280;54305;47.950;6.572;2022-09-09T14:12:56;94162.97;;;17.41;76.05
67434;BME280;54305;47.950;6.572;2022-09-09T14:15:21;94180.00;;;16.99;78.24
67434;BME280;54305;47.950;6.572;2022-09-09T14:17:47;94166.25;;;16.52;82.98
67434;BME280;54305;47.950;6.572;2022-09-09T14:20:13;94171.72;;;16.83;82.16
67434;BME280;54305;47.950;6.572;2022-09-09T14:22:40;94157.38;;;16.79;81.96
67434;BME280;54305;47.950;6.572;2022-09-09T14:25:06;94161.00;;;16.78;82.83
67434;BME280;54305;47.950;6.572;2022-09-09T14:27:31;94158.56;;;16.44;83.28
67434;BME280;54305;47.950;6.572;2022-09-09T14:29:57;94156.97;;;16.62;83.33
67434;BME280;54305;47.950;6.572;2022-09-09T14:32:23;94158.78;;;16.62;81.26
67434;BME280;54305;47.950;6.572;2022-09-09T14:34:49;94165.03;;;17.06;82.46
67434;BME280;54305;47.950;6.572;2022-09-09T14:37:18;94177.19;;;17.01;82.42
67434;BME280;54305;47.950;6.572;2022-09-09T14:39:43;94170.72;;;16.77;84.27
67434;BME280;54305;47.950;6.572;2022-09-09T14:42:10;94175.91;;;17.55;84.92
67434;BME280;54305;47.950;6.572;2022-09-09T14:44:36;94175.53;;;17.26;80.01
67434;BME280;54305;47.950;6.572;2022-09-09T14:47:02;94183.25;;;17.40;80.94
67434;BME280;54305;47.950;6.572;2022-09-09T14:49:27;94179.19;;;17.44;79.98
67434;BME280;54305;47.950;6.572;2022-09-09T14:51:56;94183.16;;;17.66;78.64
67434;BME280;54305;47.950;6.572;2022-09-09T14:54:28;94180.19;;;18.00;75.58
67434;BME280;54305;47.950;6.572;2022-09-09T14:56:54;94181.00;;;18.07;72.39
67434;BME280;54305;47.950;6.572;2022-09-09T14:59:19;94180.69;;;17.84;72.65
67434;BME280;54305;47.950;6.572;2022-09-09T15:01:44;94175.16;;;17.42;68.33
67434;BME280;54305;47.950;6.572;2022-09-09T15:04:10;94173.44;;;17.73;69.78
67434;BME280;54305;47.950;6.572;2022-09-09T15:06:37;94173.16;;;16.66;71.10